Terminal Aerodrome Forecast
Issued by NWS Shreveport, LA

Current Version | Previous Version | Text Only | Print | Product List | Glossary On
Versions: 1 2 3 4 5 6 7 8 9 10 11 12 13
727
FTUS44 KSHV 251344 AAA
TAFELD
TAF AMD
KELD 251344Z 2514/2612 15004KT P6SM BKN009
     FM251600 17009KT P6SM BKN025 BKN250
     FM252100 16011KT P6SM BKN035 BKN250
     FM260000 16006KT P6SM FEW030 BKN250=

USA.gov is the U.S. government's official web portal to all federal, state and local government web resources and services.